sensor_id;sensor_type;location;lat;lon;timestamp;temperature;humidity
42905;DHT22;28550;51.228;4.528;2023-06-22T00:03:32;19.20;1.00
42905;DHT22;28550;51.228;4.528;2023-06-22T00:05:59;19.10;20.50
42905;DHT22;28550;51.228;4.528;2023-06-22T00:08:26;19.10;33.50
42905;DHT22;28550;51.228;4.528;2023-06-22T00:11:16;18.90;49.00
42905;DHT22;28550;51.228;4.528;2023-06-22T00:13:42;18.90;51.80
42905;DHT22;28550;51.228;4.528;2023-06-22T00:16:12;18.90;49.40
42905;DHT22;28550;51.228;4.528;2023-06-22T00:18:38;18.90;46.50
42905;DHT22;28550;51.228;4.528;2023-06-22T00:21:13;18.80;51.40
42905;DHT22;28550;51.228;4.528;2023-06-22T00:23:39;18.80;47.30
42905;DHT22;28550;51.228;4.528;2023-06-22T00:26:05;18.80;43.10
42905;DHT22;28550;51.228;4.528;2023-06-22T00:28:31;18.80;41.10
42905;DHT22;28550;51.228;4.528;2023-06-22T00:30:59;18.70;38.60
42905;DHT22;28550;51.228;4.528;2023-06-22T00:33:26;18.70;39.80
42905;DHT22;28550;51.228;4.528;2023-06-22T00:35:52;18.70;35.90
42905;DHT22;28550;51.228;4.528;2023-06-22T00:38:19;18.60;36.00
42905;DHT22;28550;51.228;4.528;2023-06-22T00:40:46;18.60;34.50
42905;DHT22;28550;51.228;4.528;2023-06-22T00:43:12;18.60;32.70
42905;DHT22;28550;51.228;4.528;2023-06-22T00:45:40;18.50;37.90
42905;DHT22;28550;51.228;4.528;2023-06-22T00:48:09;18.50;32.60
42905;DHT22;28550;51.228;4.528;2023-06-22T00:50:37;18.40;37.40
42905;DHT22;28550;51.228;4.528;2023-06-22T00:53:09;18.50;35.80
42905;DHT22;28550;51.228;4.528;2023-06-22T00:55:43;18.40;33.50
42905;DHT22;28550;51.228;4.528;2023-06-22T01:00:53;18.30;33.80
42905;DHT22;28550;51.228;4.528;2023-06-22T01:03:21;18.40;28.00
42905;DHT22;28550;51.228;4.528;2023-06-22T01:05:48;18.40;25.90
42905;DHT22;28550;51.228;4.528;2023-06-22T01:08:31;18.40;27.90
42905;DHT22;28550;51.228;4.528;2023-06-22T01:11:07;18.40;22.10
42905;DHT22;28550;51.228;4.528;2023-06-22T01:16:35;18.40;23.50
42905;DHT22;28550;51.228;4.528;2023-06-22T01:19:17;18.40;26.90
42905;DHT22;28550;51.228;4.528;2023-06-22T01:21:47;18.50;20.80
42905;DHT22;28550;51.228;4.528;2023-06-22T01:24:23;18.40;23.70
42905;DHT22;28550;51.228;4.528;2023-06-22T01:29:55;18.30;28.10
42905;DHT22;28550;51.228;4.528;2023-06-22T01:32:33;18.20;34.50
42905;DHT22;28550;51.228;4.528;2023-06-22T01:37:36;18.20;45.40
42905;DHT22;28550;51.228;4.528;2023-06-22T01:40:05;18.30;33.10
42905;DHT22;28550;51.228;4.528;2023-06-22T01:42:50;18.30;35.90
42905;DHT22;28550;51.228;4.528;2023-06-22T01:48:57;18.20;42.10
42905;DHT22;28550;51.228;4.528;2023-06-22T01:51:42;18.20;46.70
42905;DHT22;28550;51.228;4.528;2023-06-22T01:54:08;18.20;45.00
42905;DHT22;28550;51.228;4.528;2023-06-22T02:00:05;18.20;43.50
42905;DHT22;28550;51.228;4.528;2023-06-22T02:06:20;18.20;42.60
42905;DHT22;28550;51.228;4.528;2023-06-22T02:08:53;18.20;39.20
42905;DHT22;28550;51.228;4.528;2023-06-22T02:22:29;18.00;44.20
42905;DHT22;28550;51.228;4.528;2023-06-22T02:24:56;17.90;46.40
42905;DHT22;28550;51.228;4.528;2023-06-22T02:27:24;17.90;51.40
42905;DHT22;28550;51.228;4.528;2023-06-22T02:29:50;17.80;54.60
42905;DHT22;28550;51.228;4.528;2023-06-22T02:32:16;17.80;53.30
42905;DHT22;28550;51.228;4.528;2023-06-22T02:34:43;17.80;48.00
42905;DHT22;28550;51.228;4.528;2023-06-22T02:37:16;17.80;52.10
42905;DHT22;28550;51.228;4.528;2023-06-22T02:39:42;17.80;49.80
42905;DHT22;28550;51.228;4.528;2023-06-22T02:42:10;17.80;48.00
42905;DHT22;28550;51.228;4.528;2023-06-22T02:48:02;17.80;49.70
42905;DHT22;28550;51.228;4.528;2023-06-22T02:50:28;17.80;50.80
42905;DHT22;28550;51.228;4.528;2023-06-22T02:52:53;17.80;51.60
42905;DHT22;28550;51.228;4.528;2023-06-22T02:55:19;17.90;44.80
42905;DHT22;28550;51.228;4.528;2023-06-22T02:57:45;17.80;39.20
42905;DHT22;28550;51.228;4.528;2023-06-22T03:00:14;17.70;43.40
42905;DHT22;28550;51.228;4.528;2023-06-22T03:02:49;17.80;41.60
42905;DHT22;28550;51.228;4.528;2023-06-22T03:05:22;17.70;43.50
42905;DHT22;28550;51.228;4.528;2023-06-22T03:07:50;17.60;45.40
42905;DHT22;28550;51.228;4.528;2023-06-22T03:10:18;17.60;51.10
42905;DHT22;28550;51.228;4.528;2023-06-22T03:12:43;17.60;51.70
42905;DHT22;28550;51.228;4.528;2023-06-22T03:15:12;17.50;50.30
42905;DHT22;28550;51.228;4.528;2023-06-22T03:17:38;17.50;53.80
42905;DHT22;28550;51.228;4.528;2023-06-22T03:20:18;17.50;51.90
42905;DHT22;28550;51.228;4.528;2023-06-22T03:22:48;17.50;50.30
42905;DHT22;28550;51.228;4.528;2023-06-22T03:25:15;17.50;52.50
42905;DHT22;28550;51.228;4.528;2023-06-22T03:27:44;17.60;53.50
42905;DHT22;28550;51.228;4.528;2023-06-22T03:30:13;17.50;57.70
42905;DHT22;28550;51.228;4.528;2023-06-22T03:32:49;17.50;57.40
42905;DHT22;28550;51.228;4.528;2023-06-22T03:35:23;17.40;59.80
42905;DHT22;28550;51.228;4.528;2023-06-22T03:37:49;17.40;64.00
42905;DHT22;28550;51.228;4.528;2023-06-22T03:40:34;17.40;64.10
42905;DHT22;28550;51.228;4.528;2023-06-22T03:43:00;17.50;59.40
42905;DHT22;28550;51.228;4.528;2023-06-22T03:45:40;17.60;57.00
42905;DHT22;28550;51.228;4.528;2023-06-22T03:48:28;17.50;55.90
42905;DHT22;28550;51.228;4.528;2023-06-22T03:50:54;17.60;59.10
42905;DHT22;28550;51.228;4.528;2023-06-22T03:53:20;17.60;53.40
42905;DHT22;28550;51.228;4.528;2023-06-22T03:55:50;17.60;59.10
42905;DHT22;28550;51.228;4.528;2023-06-22T03:58:20;17.60;61.80
42905;DHT22;28550;51.228;4.528;2023-06-22T04:04:14;17.70;62.30
42905;DHT22;28550;51.228;4.528;2023-06-22T04:06:40;17.70;59.80
42905;DHT22;28550;51.228;4.528;2023-06-22T04:09:28;17.70;63.80
42905;DHT22;28550;51.228;4.528;2023-06-22T04:12:14;17.70;62.40
42905;DHT22;28550;51.228;4.528;2023-06-22T04:14:51;17.70;66.10
42905;DHT22;28550;51.228;4.528;2023-06-22T04:17:19;17.70;65.00
42905;DHT22;28550;51.228;4.528;2023-06-22T04:23:10;17.60;69.10
42905;DHT22;28550;51.228;4.528;2023-06-22T04:25:37;17.60;72.50
42905;DHT22;28550;51.228;4.528;2023-06-22T04:28:13;17.70;70.30
42905;DHT22;28550;51.228;4.528;2023-06-22T04:30:40;17.80;67.90
42905;DHT22;28550;51.228;4.528;2023-06-22T04:33:16;17.90;64.70
42905;DHT22;28550;51.228;4.528;2023-06-22T04:35:53;18.00;57.30
42905;DHT22;28550;51.228;4.528;2023-06-22T04:38:22;18.00;63.40
42905;DHT22;28550;51.228;4.528;2023-06-22T04:40:50;18.00;63.40
42905;DHT22;28550;51.228;4.528;2023-06-22T04:43:16;18.00;61.90
42905;DHT22;28550;51.228;4.528;2023-06-22T04:45:51;18.20;56.20
42905;DHT22;28550;51.228;4.528;2023-06-22T04:48:19;18.20;57.90
42905;DHT22;28550;51.228;4.528;2023-06-22T04:50:44;18.20;56.90
42905;DHT22;28550;51.228;4.528;2023-06-22T04:53:16;18.20;55.50
42905;DHT22;28550;51.228;4.528;2023-06-22T04:55:44;18.30;55.80
42905;DHT22;28550;51.228;4.528;2023-06-22T04:58:14;18.40;51.50
42905;DHT22;28550;51.228;4.528;2023-06-22T05:00:41;18.40;48.50
42905;DHT22;28550;51.228;4.528;2023-06-22T05:03:10;18.40;50.60
42905;DHT22;28550;51.228;4.528;2023-06-22T05:05:38;18.40;51.70
42905;DHT22;28550;51.228;4.528;2023-06-22T05:08:06;18.50;52.90
42905;DHT22;28550;51.228;4.528;2023-06-22T05:10:52;18.60;48.10
42905;DHT22;28550;51.228;4.528;2023-06-22T05:13:22;18.80;48.50
42905;DHT22;28550;51.228;4.528;2023-06-22T05:15:58;18.90;43.50
42905;DHT22;28550;51.228;4.528;2023-06-22T05:18:45;19.00;39.70
42905;DHT22;28550;51.228;4.528;2023-06-22T05:21:12;19.30;24.70
42905;DHT22;28550;51.228;4.528;2023-06-22T05:24:04;19.50;12.00
42905;DHT22;28550;51.228;4.528;2023-06-22T05:29:54;20.10;1.00
42905;DHT22;28550;51.228;4.528;2023-06-22T05:32:30;20.20;1.00
42905;DHT22;28550;51.228;4.528;2023-06-22T05:35:17;20.50;1.00
42905;DHT22;28550;51.228;4.528;2023-06-22T05:38:07;20.70;1.00
42905;DHT22;28550;51.228;4.528;2023-06-22T05:40:52;20.90;1.00
42905;DHT22;28550;51.228;4.528;2023-06-22T05:43:30;21.10;99.90
42905;DHT22;28550;51.228;4.528;2023-06-22T05:45:59;21.30;99.90
42905;DHT22;28550;51.228;4.528;2023-06-22T05:48:27;21.40;1.00
42905;DHT22;28550;51.228;4.528;2023-06-22T05:51:00;21.50;1.00
42905;DHT22;28550;51.228;4.528;2023-06-22T05:53:29;21.60;99.90
42905;DHT22;28550;51.228;4.528;2023-06-22T05:56:11;21.70;99.90
42905;DHT22;28550;51.228;4.528;2023-06-22T05:58:39;21.80;1.00
42905;DHT22;28550;51.228;4.528;2023-06-22T06:01:13;21.80;99.90
42905;DHT22;28550;51.228;4.528;2023-06-22T06:03:41;21.80;45.80
42905;DHT22;28550;51.228;4.528;2023-06-22T06:06:10;22.00;99.90
42905;DHT22;28550;51.228;4.528;2023-06-22T06:08:41;21.90;99.90
42905;DHT22;28550;51.228;4.528;2023-06-22T06:11:07;22.00;99.90
42905;DHT22;28550;51.228;4.528;2023-06-22T06:14:07;22.20;99.90
42905;DHT22;28550;51.228;4.528;2023-06-22T06:16:33;22.10;99.90
42905;DHT22;28550;51.228;4.528;2023-06-22T06:19:24;22.10;99.90
42905;DHT22;28550;51.228;4.528;2023-06-22T06:22:20;22.00;1.00
42905;DHT22;28550;51.228;4.528;2023-06-22T06:24:48;22.30;99.90
42905;DHT22;28550;51.228;4.528;2023-06-22T06:45:45;22.80;1.00
42905;DHT22;28550;51.228;4.528;2023-06-22T06:48:11;22.60;99.90
42905;DHT22;28550;51.228;4.528;2023-06-22T06:50:37;22.70;99.90
42905;DHT22;28550;51.228;4.528;2023-06-22T06:53:03;22.80;1.00
42905;DHT22;28550;51.228;4.528;2023-06-22T06:55:33;22.80;1.00
42905;DHT22;28550;51.228;4.528;2023-06-22T06:58:04;22.70;1.00
42905;DHT22;28550;51.228;4.528;2023-06-22T07:00:33;22.80;1.00
42905;DHT22;28550;51.228;4.528;2023-06-22T07:03:00;22.80;99.90
42905;DHT22;28550;51.228;4.528;2023-06-22T07:05:29;22.70;1.00
42905;DHT22;28550;51.228;4.528;2023-06-22T07:08:02;22.70;1.00
42905;DHT22;28550;51.228;4.528;2023-06-22T07:10:31;22.80;99.90
42905;DHT22;28550;51.228;4.528;2023-06-22T07:13:01;22.80;99.90
42905;DHT22;28550;51.228;4.528;2023-06-22T07:15:39;22.80;99.90
42905;DHT22;28550;51.228;4.528;2023-06-22T07:18:20;22.70;22.90
42905;DHT22;28550;51.228;4.528;2023-06-22T08:44:12;22.70;99.90
42905;DHT22;28550;51.228;4.528;2023-06-22T08:46:55;22.60;1.00
42905;DHT22;28550;51.228;4.528;2023-06-22T08:49:40;22.70;99.90
42905;DHT22;28550;51.228;4.528;2023-06-22T08:52:10;22.70;1.00
42905;DHT22;28550;51.228;4.528;2023-06-22T09:04:59;22.10;99.90
42905;DHT22;28550;51.228;4.528;2023-06-22T09:07:44;22.00;1.00
42905;DHT22;28550;51.228;4.528;2023-06-22T09:10:25;22.10;1.00
42905;DHT22;28550;51.228;4.528;2023-06-22T09:12:59;22.40;84.40
42905;DHT22;28550;51.228;4.528;2023-06-22T09:15:32;22.50;1.00
42905;DHT22;28550;51.228;4.528;2023-06-22T10:11:48;22.90;99.90
42905;DHT22;28550;51.228;4.528;2023-06-22T10:18:02;23.10;99.90
42905;DHT22;28550;51.228;4.528;2023-06-22T10:23:57;22.90;99.90
42905;DHT22;28550;51.228;4.528;2023-06-22T10:26:30;22.80;1.00
42905;DHT22;28550;51.228;4.528;2023-06-22T10:28:57;22.70;1.00
42905;DHT22;28550;51.228;4.528;2023-06-22T10:31:34;22.70;1.00
42905;DHT22;28550;51.228;4.528;2023-06-22T10:34:21;22.60;1.00
42905;DHT22;28550;51.228;4.528;2023-06-22T10:36:51;22.50;1.00
42905;DHT22;28550;51.228;4.528;2023-06-22T10:39:21;22.50;1.00
42905;DHT22;28550;51.228;4.528;2023-06-22T10:41:50;22.40;14.10
42905;DHT22;28550;51.228;4.528;2023-06-22T10:44:15;22.20;15.80
42905;DHT22;28550;51.228;4.528;2023-06-22T10:46:43;21.90;21.30
42905;DHT22;28550;51.228;4.528;2023-06-22T10:49:09;21.80;45.00
42905;DHT22;28550;51.228;4.528;2023-06-22T10:51:35;21.60;51.60
42905;DHT22;28550;51.228;4.528;2023-06-22T10:54:01;21.40;61.00
42905;DHT22;28550;51.228;4.528;2023-06-22T10:56:27;21.40;68.80
42905;DHT22;28550;51.228;4.528;2023-06-22T10:58:53;21.40;70.10
42905;DHT22;28550;51.228;4.528;2023-06-22T11:01:25;21.20;75.30
42905;DHT22;28550;51.228;4.528;2023-06-22T11:04:06;21.00;72.70
42905;DHT22;28550;51.228;4.528;2023-06-22T11:06:32;20.70;84.00
42905;DHT22;28550;51.228;4.528;2023-06-22T11:09:03;20.60;91.60
42905;DHT22;28550;51.228;4.528;2023-06-22T11:11:29;20.60;93.70
42905;DHT22;28550;51.228;4.528;2023-06-22T11:13:55;20.70;95.40
42905;DHT22;28550;51.228;4.528;2023-06-22T11:16:22;20.70;97.20
42905;DHT22;28550;51.228;4.528;2023-06-22T11:18:48;20.70;98.90
42905;DHT22;28550;51.228;4.528;2023-06-22T11:21:13;20.90;98.30
42905;DHT22;28550;51.228;4.528;2023-06-22T11:23:41;20.90;97.00
42905;DHT22;28550;51.228;4.528;2023-06-22T11:26:08;21.00;99.40
42905;DHT22;28550;51.228;4.528;2023-06-22T11:28:34;20.90;99.70
42905;DHT22;28550;51.228;4.528;2023-06-22T11:31:07;21.10;99.90
42905;DHT22;28550;51.228;4.528;2023-06-22T11:33:33;21.30;99.90
42905;DHT22;28550;51.228;4.528;2023-06-22T11:36:06;21.30;98.70
42905;DHT22;28550;51.228;4.528;2023-06-22T11:38:40;21.20;99.80
42905;DHT22;28550;51.228;4.528;2023-06-22T11:41:07;21.00;96.30
42905;DHT22;28550;51.228;4.528;2023-06-22T11:43:47;20.90;97.30
42905;DHT22;28550;51.228;4.528;2023-06-22T11:46:25;20.70;96.60
42905;DHT22;28550;51.228;4.528;2023-06-22T11:48:55;20.60;98.10
42905;DHT22;28550;51.228;4.528;2023-06-22T11:51:24;20.50;99.90
42905;DHT22;28550;51.228;4.528;2023-06-22T11:53:54;20.30;99.90
42905;DHT22;28550;51.228;4.528;2023-06-22T11:56:24;20.30;99.90
42905;DHT22;28550;51.228;4.528;2023-06-22T11:58:50;20.30;99.90
42905;DHT22;28550;51.228;4.528;2023-06-22T12:01:17;20.20;99.20
42905;DHT22;28550;51.228;4.528;2023-06-22T12:03:43;20.10;99.90
42905;DHT22;28550;51.228;4.528;2023-06-22T12:06:10;20.10;99.60
42905;DHT22;28550;51.228;4.528;2023-06-22T12:08:40;19.70;99.90
42905;DHT22;28550;51.228;4.528;2023-06-22T12:11:05;19.50;99.90
42905;DHT22;28550;51.228;4.528;2023-06-22T12:13:31;19.40;99.90
42905;DHT22;28550;51.228;4.528;2023-06-22T12:18:34;19.10;99.90
42905;DHT22;28550;51.228;4.528;2023-06-22T12:21:05;19.10;99.90
42905;DHT22;28550;51.228;4.528;2023-06-22T12:23:38;19.00;99.90
42905;DHT22;28550;51.228;4.528;2023-06-22T12:26:04;19.00;99.90
42905;DHT22;28550;51.228;4.528;2023-06-22T12:28:33;18.90;99.90
42905;DHT22;28550;51.228;4.528;2023-06-22T12:31:05;19.00;99.90
42905;DHT22;28550;51.228;4.528;2023-06-22T12:33:40;19.00;99.90
42905;DHT22;28550;51.228;4.528;2023-06-22T12:36:14;19.00;99.90
42905;DHT22;28550;51.228;4.528;2023-06-22T12:39:00;19.10;99.90
42905;DHT22;28550;51.228;4.528;2023-06-22T12:41:30;19.10;99.90
42905;DHT22;28550;51.228;4.528;2023-06-22T12:47:29;19.00;99.90
42905;DHT22;28550;51.228;4.528;2023-06-22T12:50:31;18.90;99.90
42905;DHT22;28550;51.228;4.528;2023-06-22T12:53:06;18.80;99.90
42905;DHT22;28550;51.228;4.528;2023-06-22T12:55:45;18.90;99.90
42905;DHT22;28550;51.228;4.528;2023-06-22T12:58:31;19.10;99.90
42905;DHT22;28550;51.228;4.528;2023-06-22T13:01:02;19.20;99.90
42905;DHT22;28550;51.228;4.528;2023-06-22T13:06:36;19.20;99.90
42905;DHT22;28550;51.228;4.528;2023-06-22T13:09:01;19.30;99.90
42905;DHT22;28550;51.228;4.528;2023-06-22T13:11:45;19.20;99.90
42905;DHT22;28550;51.228;4.528;2023-06-22T13:20:14;19.50;99.90
42905;DHT22;28550;51.228;4.528;2023-06-22T13:22:48;19.50;99.90
42905;DHT22;28550;51.228;4.528;2023-06-22T13:25:27;19.60;99.90
42905;DHT22;28550;51.228;4.528;2023-06-22T13:27:53;19.70;99.90
42905;DHT22;28550;51.228;4.528;2023-06-22T13:30:18;19.60;99.90
42905;DHT22;28550;51.228;4.528;2023-06-22T13:32:45;19.70;99.90
42905;DHT22;28550;51.228;4.528;2023-06-22T13:35:22;19.60;99.90
42905;DHT22;28550;51.228;4.528;2023-06-22T13:37:52;19.60;99.90
42905;DHT22;28550;51.228;4.528;2023-06-22T13:40:34;19.60;99.90
42905;DHT22;28550;51.228;4.528;2023-06-22T13:43:08;19.40;99.90
42905;DHT22;28550;51.228;4.528;2023-06-22T13:45:33;19.30;99.90
42905;DHT22;28550;51.228;4.528;2023-06-22T13:48:01;19.30;99.90
42905;DHT22;28550;51.228;4.528;2023-06-22T13:50:32;19.30;99.90
42905;DHT22;28550;51.228;4.528;2023-06-22T13:53:00;19.30;99.90
42905;DHT22;28550;51.228;4.528;2023-06-22T13:55:29;19.20;99.90
42905;DHT22;28550;51.228;4.528;2023-06-22T13:57:59;19.30;99.90
42905;DHT22;28550;51.228;4.528;2023-06-22T14:00:30;19.40;99.90
42905;DHT22;28550;51.228;4.528;2023-06-22T14:02:59;19.40;99.90
42905;DHT22;28550;51.228;4.528;2023-06-22T14:05:26;19.50;99.90
42905;DHT22;28550;51.228;4.528;2023-06-22T14:07:53;19.60;99.90
42905;DHT22;28550;51.228;4.528;2023-06-22T14:10:22;19.50;99.90
42905;DHT22;28550;51.228;4.528;2023-06-22T14:12:50;19.40;99.90
42905;DHT22;28550;51.228;4.528;2023-06-22T14:15:16;19.50;99.90
42905;DHT22;28550;51.228;4.528;2023-06-22T14:17:42;19.50;99.90
42905;DHT22;28550;51.228;4.528;2023-06-22T14:20:09;19.50;99.90
42905;DHT22;28550;51.228;4.528;2023-06-22T14:22:37;19.70;99.90
42905;DHT22;28550;51.228;4.528;2023-06-22T14:25:10;19.60;99.90
42905;DHT22;28550;51.228;4.528;2023-06-22T14:27:36;19.60;99.90
42905;DHT22;28550;51.228;4.528;2023-06-22T14:30:03;19.60;99.90
42905;DHT22;28550;51.228;4.528;2023-06-22T14:32:30;19.60;99.90
42905;DHT22;28550;51.228;4.528;2023-06-22T14:34:56;19.50;99.90
42905;DHT22;28550;51.228;4.528;2023-06-22T14:37:23;19.50;99.90
42905;DHT22;28550;51.228;4.528;2023-06-22T14:39:49;19.50;99.90
42905;DHT22;28550;51.228;4.528;2023-06-22T14:42:17;19.50;99.90
42905;DHT22;28550;51.228;4.528;2023-06-22T14:44:44;19.60;99.90
42905;DHT22;28550;51.228;4.528;2023-06-22T14:47:16;19.60;99.90
42905;DHT22;28550;51.228;4.528;2023-06-22T14:49:45;19.80;99.90
42905;DHT22;28550;51.228;4.528;2023-06-22T14:52:12;19.60;99.90
42905;DHT22;28550;51.228;4.528;2023-06-22T14:54:40;19.70;99.90
42905;DHT22;28550;51.228;4.528;2023-06-22T14:57:07;19.90;99.90
42905;DHT22;28550;51.228;4.528;2023-06-22T14:59:32;19.90;99.90
42905;DHT22;28550;51.228;4.528;2023-06-22T15:01:58;20.00;99.90
42905;DHT22;28550;51.228;4.528;2023-06-22T15:04:24;20.00;99.90
42905;DHT22;28550;51.228;4.528;2023-06-22T15:06:50;20.00;99.90
42905;DHT22;28550;51.228;4.528;2023-06-22T15:09:20;20.00;99.90
42905;DHT22;28550;51.228;4.528;2023-06-22T15:11:46;20.10;99.90
42905;DHT22;28550;51.228;4.528;2023-06-22T15:14:13;20.00;99.90
42905;DHT22;28550;51.228;4.528;2023-06-22T15:16:41;20.00;99.90
42905;DHT22;28550;51.228;4.528;2023-06-22T15:19:14;20.00;99.90
42905;DHT22;28550;51.228;4.528;2023-06-22T15:21:40;20.00;99.90
42905;DHT22;28550;51.228;4.528;2023-06-22T15:24:05;19.90;99.90
42905;DHT22;28550;51.228;4.528;2023-06-22T15:26:32;20.00;99.90
42905;DHT22;28550;51.228;4.528;2023-06-22T15:28:58;19.90;99.90
42905;DHT22;28550;51.228;4.528;2023-06-22T15:31:29;19.90;99.90
42905;DHT22;28550;51.228;4.528;2023-06-22T15:33:55;19.90;99.90
42905;DHT22;28550;51.228;4.528;2023-06-22T15:36:22;19.90;99.90
42905;DHT22;28550;51.228;4.528;2023-06-22T15:38:48;19.90;99.90
42905;DHT22;28550;51.228;4.528;2023-06-22T15:41:13;19.80;99.90
42905;DHT22;28550;51.228;4.528;2023-06-22T15:43:47;19.90;99.90
42905;DHT22;28550;51.228;4.528;2023-06-22T15:46:13;20.00;99.90
42905;DHT22;28550;51.228;4.528;2023-06-22T15:48:44;20.10;99.90
42905;DHT22;28550;51.228;4.528;2023-06-22T15:51:14;20.10;99.90
42905;DHT22;28550;51.228;4.528;2023-06-22T15:53:45;20.00;99.90
42905;DHT22;28550;51.228;4.528;2023-06-22T16:04:44;19.90;99.90
42905;DHT22;28550;51.228;4.528;2023-06-22T16:07:13;19.90;99.90
42905;DHT22;28550;51.228;4.528;2023-06-22T16:09:44;19.90;99.90
42905;DHT22;28550;51.228;4.528;2023-06-22T16:12:10;20.00;99.90
42905;DHT22;28550;51.228;4.528;2023-06-22T16:26:47;20.20;99.90
42905;DHT22;28550;51.228;4.528;2023-06-22T16:29:16;20.30;99.90
42905;DHT22;28550;51.228;4.528;2023-06-22T16:31:42;20.20;99.90
42905;DHT22;28550;51.228;4.528;2023-06-22T16:34:50;20.10;99.90
42905;DHT22;28550;51.228;4.528;2023-06-22T17:04:06;20.20;99.90
42905;DHT22;28550;51.228;4.528;2023-06-22T17:10:08;20.20;99.90
42905;DHT22;28550;51.228;4.528;2023-06-22T17:12:43;20.20;99.90
42905;DHT22;28550;51.228;4.528;2023-06-22T17:15:28;20.10;99.90
42905;DHT22;28550;51.228;4.528;2023-06-22T17:18:16;20.10;99.90
42905;DHT22;28550;51.228;4.528;2023-06-22T17:27:17;20.10;99.90
42905;DHT22;28550;51.228;4.528;2023-06-22T17:37:59;19.90;99.90
42905;DHT22;28550;51.228;4.528;2023-06-22T17:49:12;20.10;99.90
42905;DHT22;28550;51.228;4.528;2023-06-22T17:52:01;20.10;99.90
42905;DHT22;28550;51.228;4.528;2023-06-22T18:03:28;20.10;99.90
42905;DHT22;28550;51.228;4.528;2023-06-22T18:06:03;20.20;99.90
42905;DHT22;28550;51.228;4.528;2023-06-22T18:08:32;20.10;99.90
42905;DHT22;28550;51.228;4.528;2023-06-22T18:11:11;20.10;99.90
42905;DHT22;28550;51.228;4.528;2023-06-22T18:13:37;20.00;99.90
42905;DHT22;28550;51.228;4.528;2023-06-22T18:16:29;19.90;99.90
42905;DHT22;28550;51.228;4.528;2023-06-22T18:19:13;19.90;99.90
42905;DHT22;28550;51.228;4.528;2023-06-22T18:22:17;19.90;99.90
42905;DHT22;28550;51.228;4.528;2023-06-22T18:24:49;19.90;99.90
42905;DHT22;28550;51.228;4.528;2023-06-22T18:27:18;19.90;99.90
42905;DHT22;28550;51.228;4.528;2023-06-22T18:36:58;19.90;99.90
42905;DHT22;28550;51.228;4.528;2023-06-22T18:39:33;20.00;99.90
42905;DHT22;28550;51.228;4.528;2023-06-22T18:42:02;19.90;99.90
42905;DHT22;28550;51.228;4.528;2023-06-22T18:44:40;19.90;99.90
42905;DHT22;28550;51.228;4.528;2023-06-22T18:50:40;19.80;99.90
42905;DHT22;28550;51.228;4.528;2023-06-22T18:56:09;19.80;99.90
42905;DHT22;28550;51.228;4.528;2023-06-22T18:58:38;19.80;99.90
42905;DHT22;28550;51.228;4.528;2023-06-22T19:01:18;19.80;99.90
42905;DHT22;28550;51.228;4.528;2023-06-22T19:04:00;19.70;99.90
42905;DHT22;28550;51.228;4.528;2023-06-22T19:11:37;19.70;99.90
42905;DHT22;28550;51.228;4.528;2023-06-22T19:14:20;19.70;99.90
42905;DHT22;28550;51.228;4.528;2023-06-22T19:17:07;19.70;99.90
42905;DHT22;28550;51.228;4.528;2023-06-22T19:19:36;19.70;99.90
42905;DHT22;28550;51.228;4.528;2023-06-22T19:22:05;19.70;99.90
42905;DHT22;28550;51.228;4.528;2023-06-22T19:28:15;19.70;99.90
42905;DHT22;28550;51.228;4.528;2023-06-22T19:30:43;19.60;99.90
42905;DHT22;28550;51.228;4.528;2023-06-22T19:33:12;19.60;99.90
42905;DHT22;28550;51.228;4.528;2023-06-22T19:35:59;19.60;99.90
42905;DHT22;28550;51.228;4.528;2023-06-22T19:38:30;19.60;99.90
42905;DHT22;28550;51.228;4.528;2023-06-22T19:41:02;19.50;99.90
42905;DHT22;28550;51.228;4.528;2023-06-22T19:43:33;19.60;99.90
42905;DHT22;28550;51.228;4.528;2023-06-22T19:46:00;19.60;99.90
42905;DHT22;28550;51.228;4.528;2023-06-22T19:48:30;19.60;99.90
42905;DHT22;28550;51.228;4.528;2023-06-22T19:51:06;19.70;99.90
42905;DHT22;28550;51.228;4.528;2023-06-22T19:53:33;19.70;99.90
42905;DHT22;28550;51.228;4.528;2023-06-22T19:56:01;19.70;99.90
42905;DHT22;28550;51.228;4.528;2023-06-22T19:58:35;19.60;99.90
42905;DHT22;28550;51.228;4.528;2023-06-22T20:01:05;19.50;99.90
42905;DHT22;28550;51.228;4.528;2023-06-22T20:03:36;19.50;99.90
42905;DHT22;28550;51.228;4.528;2023-06-22T20:06:21;19.60;99.90
42905;DHT22;28550;51.228;4.528;2023-06-22T20:08:55;19.50;99.90
42905;DHT22;28550;51.228;4.528;2023-06-22T20:11:30;19.40;99.90
42905;DHT22;28550;51.228;4.528;2023-06-22T20:14:03;19.50;99.90
42905;DHT22;28550;51.228;4.528;2023-06-22T20:16:30;19.50;99.90
42905;DHT22;28550;51.228;4.528;2023-06-22T20:19:11;19.50;99.90
42905;DHT22;28550;51.228;4.528;2023-06-22T20:21:38;19.60;99.90
42905;DHT22;28550;51.228;4.528;2023-06-22T20:24:07;19.60;99.90
42905;DHT22;28550;51.228;4.528;2023-06-22T20:26:52;19.60;99.90
42905;DHT22;28550;51.228;4.528;2023-06-22T20:29:31;19.60;99.90
42905;DHT22;28550;51.228;4.528;2023-06-22T20:32:12;19.60;99.90
42905;DHT22;28550;51.228;4.528;2023-06-22T20:34:48;19.50;99.90
42905;DHT22;28550;51.228;4.528;2023-06-22T20:37:17;19.50;99.90
42905;DHT22;28550;51.228;4.528;2023-06-22T20:44:58;19.30;99.90
42905;DHT22;28550;51.228;4.528;2023-06-22T20:47:25;19.30;99.90
42905;DHT22;28550;51.228;4.528;2023-06-22T20:49:54;19.30;99.90
42905;DHT22;28550;51.228;4.528;2023-06-22T20:52:26;19.30;99.90
42905;DHT22;28550;51.228;4.528;2023-06-22T20:55:12;19.40;99.90
42905;DHT22;28550;51.228;4.528;2023-06-22T20:57:41;19.30;99.90
42905;DHT22;28550;51.228;4.528;2023-06-22T21:00:09;19.20;99.90
42905;DHT22;28550;51.228;4.528;2023-06-22T21:02:35;19.10;99.90
42905;DHT22;28550;51.228;4.528;2023-06-22T21:05:09;19.00;99.90
42905;DHT22;28550;51.228;4.528;2023-06-22T21:10:17;18.90;99.90
42905;DHT22;28550;51.228;4.528;2023-06-22T21:12:48;19.00;99.90
42905;DHT22;28550;51.228;4.528;2023-06-22T21:15:14;18.90;99.90
42905;DHT22;28550;51.228;4.528;2023-06-22T21:21:25;18.80;99.90
42905;DHT22;28550;51.228;4.528;2023-06-22T21:24:38;18.70;99.90
42905;DHT22;28550;51.228;4.528;2023-06-22T21:26:49;18.70;99.90
42905;DHT22;28550;51.228;4.528;2023-06-22T21:29:18;18.60;99.90
42905;DHT22;28550;51.228;4.528;2023-06-22T21:34:36;18.50;99.90
42905;DHT22;28550;51.228;4.528;2023-06-22T21:37:34;18.40;99.90
42905;DHT22;28550;51.228;4.528;2023-06-22T21:40:03;18.40;99.90
42905;DHT22;28550;51.228;4.528;2023-06-22T21:42:31;18.30;99.90
42905;DHT22;28550;51.228;4.528;2023-06-22T21:47:34;18.30;99.90
42905;DHT22;28550;51.228;4.528;2023-06-22T21:50:19;18.20;99.90
42905;DHT22;28550;51.228;4.528;2023-06-22T21:52:46;18.10;99.90
42905;DHT22;28550;51.228;4.528;2023-06-22T21:55:16;18.10;99.90
42905;DHT22;28550;51.228;4.528;2023-06-22T21:58:10;18.10;99.90
42905;DHT22;28550;51.228;4.528;2023-06-22T22:00:55;18.00;99.90